createdAt,value
2018-05-06T00:02:14.107Z,59.66
2018-05-06T00:04:40.957Z,59.92
2018-05-06T00:07:07.938Z,59.86
2018-05-06T00:09:35.531Z,59.94
2018-05-06T00:12:02.407Z,59.92
2018-05-06T00:14:29.308Z,59.92
2018-05-06T00:16:56.167Z,59.65
2018-05-06T00:19:23.572Z,60.00
2018-05-06T00:21:50.425Z,60.11
2018-05-06T00:24:17.260Z,60.19
2018-05-06T00:26:44.155Z,59.94
2018-05-06T00:29:10.993Z,60.07
2018-05-06T00:31:37.892Z,59.95
2018-05-06T00:34:05.516Z,60.08
2018-05-06T00:36:32.415Z,59.82
2018-05-06T00:38:59.360Z,59.78
2018-05-06T00:41:26.227Z,59.71
2018-05-06T00:43:54.044Z,59.36
2018-05-06T00:46:20.924Z,59.71
2018-05-06T00:48:48.512Z,59.71
2018-05-06T00:51:15.417Z,60.51
2018-05-06T00:53:42.271Z,60.55
2018-05-06T00:56:09.153Z,60.58
2018-05-06T00:58:36.053Z,61.08
2018-05-06T01:01:02.950Z,61.13
2018-05-06T01:03:29.900Z,61.28
2018-05-06T01:05:56.829Z,61.41
2018-05-06T01:08:23.719Z,61.62
2018-05-06T01:10:50.669Z,61.84
2018-05-06T01:13:17.565Z,61.72
2018-05-06T01:15:44.411Z,62.01
2018-05-06T01:18:11.301Z,62.17
2018-05-06T01:20:38.924Z,62.31
2018-05-06T01:23:05.768Z,62.28
2018-05-06T01:25:32.663Z,62.03
2018-05-06T01:27:59.591Z,62.33
2018-05-06T01:30:26.436Z,62.53
2018-05-06T01:32:53.596Z,61.62
2018-05-06T01:35:20.496Z,62.14
2018-05-06T01:37:47.339Z,62.09
2018-05-06T01:40:14.542Z,62.00
2018-05-06T01:42:41.384Z,61.95
2018-05-06T01:45:08.241Z,62.24
2018-05-06T01:47:35.133Z,62.81
2018-05-06T01:50:02.272Z,62.52
2018-05-06T01:52:29.118Z,63.14
2018-05-06T01:54:56.009Z,63.66
2018-05-06T01:57:23.689Z,64.10
2018-05-06T01:59:51.371Z,64.82
2018-05-06T02:02:18.951Z,64.43
2018-05-06T02:04:45.897Z,64.47
2018-05-06T02:07:12.765Z,64.04
2018-05-06T02:09:40.428Z,64.01
2018-05-06T02:12:07.292Z,64.17
2018-05-06T02:14:34.148Z,64.31
2018-05-06T02:17:01.052Z,64.31
2018-05-06T02:19:27.895Z,64.23
2018-05-06T02:21:54.832Z,64.18
2018-05-06T02:24:21.667Z,64.42
2018-05-06T02:26:49.252Z,64.34
2018-05-06T02:29:16.152Z,64.53
2018-05-06T02:31:43.007Z,64.98
2018-05-06T02:34:10.639Z,64.82
2018-05-06T02:36:37.661Z,65.07
2018-05-06T02:39:04.596Z,65.40
2018-05-06T02:41:31.525Z,66.04
2018-05-06T02:43:59.179Z,66.82
2018-05-06T02:46:26.774Z,65.99
2018-05-06T02:48:53.660Z,66.29
2018-05-06T02:51:20.505Z,66.44
2018-05-06T02:53:47.364Z,66.36
2018-05-06T02:56:14.253Z,65.73
2018-05-06T02:58:41.152Z,66.31
2018-05-06T03:01:08.059Z,66.92
2018-05-06T03:03:35.005Z,67.20
2018-05-06T03:06:01.900Z,68.08
2018-05-06T03:08:29.533Z,67.35
2018-05-06T03:10:56.392Z,67.03
2018-05-06T03:13:23.230Z,68.21
2018-05-06T03:15:50.122Z,68.75
2018-05-06T03:18:16.972Z,68.08
2018-05-06T03:20:43.806Z,69.05
2018-05-06T03:23:11.004Z,68.60
2018-05-06T03:25:37.894Z,69.74
2018-05-06T03:28:04.755Z,69.64
2018-05-06T03:30:31.800Z,69.48
2018-05-06T03:32:58.676Z,69.99
2018-05-06T03:35:25.524Z,69.68
2018-05-06T03:37:53.218Z,69.88
2018-05-06T03:40:20.899Z,70.19
2018-05-06T03:42:48.619Z,69.62
2018-05-06T03:45:15.467Z,69.24
2018-05-06T03:47:42.360Z,69.08
2018-05-06T03:50:09.958Z,70.08
2018-05-06T03:52:36.861Z,69.75
2018-05-06T03:55:04.509Z,69.67
2018-05-06T03:57:49.698Z,70.14
2018-05-06T04:00:35.800Z,70.93
2018-05-06T04:03:02.716Z,71.44
2018-05-06T04:05:29.565Z,71.50
2018-05-06T04:07:56.420Z,70.95
2018-05-06T04:10:23.330Z,71.21
2018-05-06T04:12:50.182Z,70.23
2018-05-06T04:15:17.813Z,70.76
2018-05-06T04:17:44.715Z,71.06
2018-05-06T04:20:12.311Z,72.92
2018-05-06T04:22:39.167Z,72.72
2018-05-06T04:25:06.048Z,72.50
2018-05-06T04:27:33.246Z,72.34
2018-05-06T04:30:00.196Z,71.98
2018-05-06T04:32:27.100Z,72.04
2018-05-06T04:34:53.994Z,71.18
2018-05-06T04:37:20.859Z,70.33
2018-05-06T04:39:47.770Z,70.15
2018-05-06T04:42:14.656Z,69.94
2018-05-06T04:44:41.499Z,69.05
2018-05-06T04:47:08.396Z,68.71
2018-05-06T04:49:35.235Z,68.33
2018-05-06T04:52:02.887Z,68.03
2018-05-06T04:54:30.541Z,66.92
2018-05-06T04:56:57.388Z,66.77
2018-05-06T04:59:24.366Z,66.24
2018-05-06T05:01:51.229Z,66.98
2018-05-06T05:04:18.189Z,65.65
2018-05-06T05:06:45.096Z,65.58
2018-05-06T05:09:12.756Z,64.94
2018-05-06T05:11:40.340Z,65.28
2018-05-06T05:14:07.184Z,63.22
2018-05-06T05:16:34.086Z,60.14
2018-05-06T05:19:00.946Z,59.54
2018-05-06T05:21:28.605Z,56.82
2018-05-06T05:23:56.201Z,54.92
2018-05-06T05:26:23.047Z,53.94
2018-05-06T05:28:49.991Z,54.33
2018-05-06T05:31:16.888Z,52.78
2018-05-06T05:33:43.779Z,52.71
2018-05-06T05:36:10.673Z,55.93
2018-05-06T05:38:37.650Z,56.00
2018-05-06T05:41:05.276Z,52.33
2018-05-06T05:43:32.121Z,51.54
2018-05-06T05:45:59.032Z,51.37
2018-05-06T05:48:25.885Z,53.34
2018-05-06T05:50:52.729Z,55.12
2018-05-06T05:53:19.619Z,53.48
2018-05-06T05:55:46.552Z,50.80
2018-05-06T05:58:13.479Z,52.32
2018-05-06T06:00:40.335Z,52.71
2018-05-06T06:03:07.212Z,50.61
2018-05-06T06:05:34.101Z,50.16
2018-05-06T06:08:01.043Z,52.98
2018-05-06T06:10:27.958Z,52.84
2018-05-06T06:12:54.851Z,49.64
2018-05-06T06:15:21.702Z,49.21
2018-05-06T06:17:48.625Z,49.25
2018-05-06T06:20:15.556Z,48.93
2018-05-06T06:22:42.395Z,47.63
2018-05-06T06:25:10.042Z,48.63
2018-05-06T06:27:37.672Z,47.78
2018-05-06T06:30:04.899Z,48.86
2018-05-06T06:32:31.757Z,47.55
2018-05-06T06:34:58.608Z,51.85
2018-05-06T06:37:25.500Z,47.43
2018-05-06T06:39:53.096Z,46.12
2018-05-06T06:42:19.986Z,51.07
2018-05-06T06:44:47.633Z,47.48
2018-05-06T06:47:14.484Z,49.58
2018-05-06T06:49:41.369Z,48.80
2018-05-06T06:52:08.234Z,46.48
2018-05-06T06:54:35.111Z,44.34
2018-05-06T06:57:02.179Z,46.97
2018-05-06T06:59:29.029Z,48.30
2018-05-06T07:01:55.884Z,43.33
2018-05-06T07:04:22.825Z,48.42
2018-05-06T07:06:49.682Z,50.44
2018-05-06T07:09:17.277Z,48.59
2018-05-06T07:11:44.209Z,47.65
2018-05-06T07:14:11.062Z,43.06
2018-05-06T07:16:37.943Z,46.42
2018-05-06T07:19:04.789Z,47.13
2018-05-06T07:21:31.663Z,47.20
2018-05-06T07:23:59.317Z,51.47
2018-05-06T07:26:26.908Z,46.53
2018-05-06T07:28:53.800Z,50.34
2018-05-06T07:31:20.683Z,50.02
2018-05-06T07:33:47.553Z,45.55
2018-05-06T07:36:14.505Z,50.74
2018-05-06T07:38:41.377Z,45.96
2018-05-06T07:41:08.300Z,42.73
2018-05-06T07:43:35.251Z,49.12
2018-05-06T07:46:02.091Z,46.27
2018-05-06T07:48:29.012Z,48.75
2018-05-06T07:50:56.518Z,43.07
2018-05-06T07:53:23.640Z,45.86
2018-05-06T07:55:50.483Z,44.82
2018-05-06T07:58:17.319Z,47.00
2018-05-06T08:00:44.592Z,45.04
2018-05-06T08:03:11.423Z,42.74
2018-05-06T08:05:38.277Z,40.80
2018-05-06T08:08:05.908Z,41.46
2018-05-06T08:10:33.499Z,44.04
2018-05-06T08:13:00.422Z,41.99
2018-05-06T08:15:27.289Z,45.14
2018-05-06T08:17:54.204Z,42.25
2018-05-06T08:20:21.880Z,41.32
2018-05-06T08:22:48.732Z,39.58
2018-05-06T08:25:15.582Z,39.64
2018-05-06T08:27:42.560Z,39.71
2018-05-06T08:30:09.428Z,37.45
2018-05-06T08:32:36.340Z,42.31
2018-05-06T08:35:03.982Z,44.93
2018-05-06T08:37:30.878Z,40.15
2018-05-06T08:39:57.744Z,38.69
2018-05-06T08:42:25.334Z,40.48
2018-05-06T08:44:52.981Z,40.44
2018-05-06T08:47:20.047Z,41.37
2018-05-06T08:49:46.987Z,36.07
2018-05-06T08:52:13.975Z,39.60
2018-05-06T08:54:40.836Z,35.57
2018-05-06T08:57:07.736Z,34.66
2018-05-06T08:59:34.660Z,38.99
2018-05-06T09:02:01.895Z,41.05
2018-05-06T09:04:28.853Z,36.37
2018-05-06T09:06:55.714Z,36.01
2018-05-06T09:09:22.601Z,34.68
2018-05-06T09:11:49.459Z,34.63
2018-05-06T09:14:16.295Z,36.36
2018-05-06T09:16:43.335Z,39.20
2018-05-06T09:19:10.305Z,36.72
2018-05-06T09:21:37.239Z,36.93
2018-05-06T09:24:04.125Z,34.70
2018-05-06T09:26:31.017Z,37.46
2018-05-06T09:28:57.897Z,37.68
2018-05-06T09:31:25.523Z,38.23
2018-05-06T09:33:52.457Z,38.05
2018-05-06T09:36:19.340Z,36.15
2018-05-06T09:38:46.213Z,36.46
2018-05-06T09:41:13.096Z,34.08
2018-05-06T09:43:39.925Z,36.94
2018-05-06T09:46:06.812Z,36.95
2018-05-06T09:48:33.664Z,38.01
2018-05-06T09:51:00.491Z,34.89
2018-05-06T09:53:27.373Z,37.94
2018-05-06T09:55:54.955Z,38.47
2018-05-06T09:58:21.840Z,38.47
2018-05-06T10:00:48.688Z,39.88
2018-05-06T10:03:15.675Z,36.10
2018-05-06T10:05:43.244Z,40.12
2018-05-06T10:08:10.140Z,35.95
2018-05-06T10:10:37.017Z,37.11
2018-05-06T10:13:03.843Z,37.33
2018-05-06T10:15:30.688Z,35.50
2018-05-06T10:17:57.555Z,35.04
2018-05-06T10:20:25.129Z,36.48
2018-05-06T10:22:52.325Z,34.59
2018-05-06T10:25:19.166Z,37.78
2018-05-06T10:27:46.045Z,37.19
2018-05-06T10:30:13.670Z,34.92
2018-05-06T10:32:40.937Z,35.48
2018-05-06T10:35:07.792Z,34.54
2018-05-06T10:37:34.628Z,34.58
2018-05-06T10:40:01.512Z,35.44
2018-05-06T10:42:29.144Z,35.56
2018-05-06T10:44:56.005Z,34.56
2018-05-06T10:47:23.572Z,34.32
2018-05-06T10:49:50.436Z,34.76
2018-05-06T10:52:17.346Z,35.22
2018-05-06T10:54:44.194Z,35.80
2018-05-06T10:57:11.349Z,36.91
2018-05-06T10:59:38.945Z,34.36
2018-05-06T11:02:05.821Z,35.30
2018-05-06T11:04:33.497Z,33.11
2018-05-06T11:07:01.120Z,33.91
2018-05-06T11:09:27.967Z,35.52
2018-05-06T11:11:54.847Z,36.15
2018-05-06T11:14:21.689Z,36.21
2018-05-06T11:16:48.832Z,35.60
2018-05-06T11:19:15.751Z,34.36
2018-05-06T11:21:42.579Z,33.77
2018-05-06T11:24:09.480Z,34.08
2018-05-06T11:26:36.343Z,35.16
2018-05-06T11:29:03.255Z,33.54
2018-05-06T11:31:30.169Z,35.75
2018-05-06T11:33:57.080Z,35.60
2018-05-06T11:36:24.661Z,33.95
2018-05-06T11:38:52.235Z,34.31
2018-05-06T11:41:19.143Z,34.45
2018-05-06T11:43:46.049Z,33.84
2018-05-06T11:46:13.609Z,35.12
2018-05-06T11:48:40.776Z,35.89
2018-05-06T11:51:07.615Z,33.44
2018-05-06T11:53:34.443Z,32.89
2018-05-06T11:56:01.716Z,32.81
2018-05-06T11:58:28.557Z,32.11
2018-05-06T12:00:55.392Z,33.65
2018-05-06T12:03:22.281Z,33.87
2018-05-06T12:05:49.131Z,34.02
2018-05-06T12:08:16.766Z,31.86
2018-05-06T12:10:43.605Z,34.71
2018-05-06T12:13:10.444Z,32.41
2018-05-06T12:15:37.598Z,33.31
2018-05-06T12:18:04.445Z,31.71
2018-05-06T12:20:31.285Z,33.68
2018-05-06T12:22:58.214Z,30.66
2018-05-06T12:25:25.052Z,31.02
2018-05-06T12:27:51.897Z,32.43
2018-05-06T12:30:18.768Z,32.09
2018-05-06T12:32:45.646Z,32.24
2018-05-06T12:35:12.525Z,32.71
2018-05-06T12:37:39.362Z,30.57
2018-05-06T12:40:06.248Z,30.73
2018-05-06T12:42:33.429Z,31.06
2018-05-06T12:45:01.010Z,33.53
2018-05-06T12:47:27.909Z,31.86
2018-05-06T12:49:54.805Z,31.98
2018-05-06T12:52:21.656Z,32.66
2018-05-06T12:54:48.844Z,30.58
2018-05-06T12:57:15.691Z,30.68
2018-05-06T12:59:42.525Z,30.82
2018-05-06T13:02:09.440Z,30.54
2018-05-06T13:04:36.330Z,30.74
2018-05-06T13:07:03.265Z,31.04
2018-05-06T13:09:30.152Z,30.10
2018-05-06T13:11:57.776Z,30.93
2018-05-06T13:14:24.661Z,30.14
2018-05-06T13:16:52.251Z,29.74
2018-05-06T13:19:19.136Z,30.14
2018-05-06T13:21:46.065Z,30.50
2018-05-06T13:24:12.931Z,30.63
2018-05-06T13:26:39.813Z,29.27
2018-05-06T13:29:06.717Z,30.25
2018-05-06T13:31:33.616Z,29.97
2018-05-06T13:34:00.452Z,29.45
2018-05-06T13:36:27.347Z,29.54
2018-05-06T13:38:54.331Z,31.53
2018-05-06T13:41:21.950Z,30.87
2018-05-06T13:43:48.877Z,29.11
2018-05-06T13:46:16.452Z,30.20
2018-05-06T13:48:43.349Z,29.67
2018-05-06T13:51:10.972Z,30.50
2018-05-06T13:53:38.160Z,29.34
2018-05-06T13:56:05.036Z,28.65
2018-05-06T13:58:31.877Z,30.12
2018-05-06T14:00:58.775Z,29.41
2018-05-06T14:03:25.607Z,29.07
2018-05-06T14:05:52.454Z,28.38
2018-05-06T14:08:19.332Z,29.75
2018-05-06T14:10:46.909Z,29.16
2018-05-06T14:13:13.812Z,29.93
2018-05-06T14:15:40.644Z,28.88
2018-05-06T14:18:08.256Z,28.86
2018-05-06T14:20:35.227Z,27.58
2018-05-06T14:23:02.119Z,29.05
2018-05-06T14:25:29.017Z,29.20
2018-05-06T14:27:55.853Z,28.61
2018-05-06T14:30:22.743Z,28.05
2018-05-06T14:32:49.588Z,27.14
2018-05-06T14:35:16.493Z,27.28
2018-05-06T14:37:43.418Z,28.39
2018-05-06T14:40:10.273Z,26.83
2018-05-06T14:42:37.159Z,26.88
2018-05-06T14:45:04.052Z,27.78
2018-05-06T14:47:49.348Z,27.03
2018-05-06T14:50:16.244Z,25.58
2018-05-06T14:52:43.101Z,26.20
2018-05-06T14:55:10.683Z,28.31
2018-05-06T14:57:37.588Z,27.34
2018-05-06T15:00:04.477Z,27.10
2018-05-06T15:02:31.364Z,27.83
2018-05-06T15:04:58.292Z,26.71
2018-05-06T15:07:25.233Z,26.21
2018-05-06T15:09:52.356Z,25.51
2018-05-06T15:12:19.249Z,25.14
2018-05-06T15:14:52.066Z,26.69
2018-05-06T15:17:19.723Z,26.68
2018-05-06T15:19:46.843Z,26.49
2018-05-06T15:22:13.933Z,25.36
2018-05-06T15:24:41.664Z,25.08
2018-05-06T15:27:08.988Z,23.79
2018-05-06T15:29:35.877Z,24.02
2018-05-06T15:32:02.774Z,24.93
2018-05-06T15:34:29.699Z,25.39
2018-05-06T15:36:56.579Z,25.31
2018-05-06T15:39:23.465Z,24.11
2018-05-06T15:41:50.312Z,25.69
2018-05-06T15:44:17.979Z,24.78
2018-05-06T15:46:45.610Z,24.81
2018-05-06T15:49:13.311Z,25.47
2018-05-06T15:51:41.011Z,24.50
2018-05-06T15:54:07.986Z,25.13
2018-05-06T15:56:35.173Z,25.65
2018-05-06T15:59:02.845Z,25.41
2018-05-06T16:01:30.455Z,27.46
2018-05-06T16:04:14.643Z,26.63
2018-05-06T16:06:41.541Z,26.81
2018-05-06T16:09:08.480Z,26.90
2018-05-06T16:11:35.335Z,24.88
2018-05-06T16:14:02.270Z,25.63
2018-05-06T16:16:29.247Z,25.37
2018-05-06T16:18:56.117Z,25.48
2018-05-06T16:21:24.315Z,25.27
2018-05-06T16:23:51.179Z,25.35
2018-05-06T16:26:18.078Z,26.35
2018-05-06T16:28:45.670Z,25.97
2018-05-06T16:31:12.564Z,26.86
2018-05-06T16:33:39.395Z,26.23
2018-05-06T16:36:06.239Z,25.37
2018-05-06T16:38:33.151Z,25.50
2018-05-06T16:41:00.022Z,25.75
2018-05-06T16:43:26.924Z,26.16
2018-05-06T16:45:54.552Z,27.15
2018-05-06T16:48:21.440Z,27.09
2018-05-06T16:50:49.050Z,27.29
2018-05-06T16:53:15.899Z,26.70
2018-05-06T16:55:42.775Z,27.33
2018-05-06T16:58:10.390Z,26.74
2018-05-06T17:00:37.329Z,27.98
2018-05-06T17:03:04.213Z,27.30
2018-05-06T17:05:31.191Z,27.45
2018-05-06T17:07:58.289Z,27.92
2018-05-06T17:10:25.157Z,27.77
2018-05-06T17:12:52.016Z,28.97
2018-05-06T17:15:19.655Z,27.99
2018-05-06T17:17:46.521Z,28.34
2018-05-06T17:20:14.280Z,28.51
2018-05-06T17:22:41.123Z,28.21
2018-05-06T17:25:08.014Z,29.24
2018-05-06T17:27:34.999Z,28.67
2018-05-06T17:30:01.915Z,28.54
2018-05-06T17:32:28.845Z,29.29
2018-05-06T17:34:55.707Z,29.55
2018-05-06T17:37:22.623Z,29.40
2018-05-06T17:39:49.545Z,29.81
2018-05-06T17:42:16.386Z,29.76
2018-05-06T17:44:43.319Z,30.06
2018-05-06T17:47:10.236Z,30.35
2018-05-06T17:49:37.221Z,30.38
2018-05-06T17:52:04.114Z,31.42
2018-05-06T17:54:31.086Z,31.68
2018-05-06T17:56:57.956Z,31.77
2018-05-06T17:59:24.870Z,31.29
2018-05-06T18:01:51.722Z,32.31
2018-05-06T18:04:19.404Z,31.96
2018-05-06T18:06:46.293Z,31.91
2018-05-06T18:09:13.140Z,32.69
2018-05-06T18:11:40.032Z,32.83
2018-05-06T18:14:06.946Z,33.08
2018-05-06T18:16:33.797Z,32.63
2018-05-06T18:19:00.684Z,33.09
2018-05-06T18:21:28.360Z,33.51
2018-05-06T18:23:56.035Z,33.99
2018-05-06T18:26:23.684Z,33.49
2018-05-06T18:28:51.723Z,33.66
2018-05-06T18:31:18.596Z,33.17
2018-05-06T18:33:46.206Z,34.18
2018-05-06T18:36:13.113Z,34.24
2018-05-06T18:38:40.703Z,34.64
2018-05-06T18:41:07.833Z,34.04
2018-05-06T18:43:35.429Z,33.77
2018-05-06T18:46:02.295Z,33.79
2018-05-06T18:48:29.215Z,34.70
2018-05-06T18:50:56.148Z,34.74
2018-05-06T18:53:23.038Z,35.19
2018-05-06T18:55:49.937Z,35.34
2018-05-06T18:58:16.816Z,35.20
2018-05-06T19:00:43.671Z,35.42
2018-05-06T19:03:10.579Z,35.63
2018-05-06T19:05:38.230Z,36.42
2018-05-06T19:08:05.148Z,36.59
2018-05-06T19:10:32.737Z,36.74
2018-05-06T19:12:59.637Z,37.29
2018-05-06T19:15:26.531Z,38.00
2018-05-06T19:17:53.392Z,38.03
2018-05-06T19:20:20.298Z,38.41
2018-05-06T19:22:47.886Z,37.76
2018-05-06T19:25:14.737Z,38.08
2018-05-06T19:27:41.641Z,38.47
2018-05-06T19:30:08.485Z,38.91
2018-05-06T19:32:35.416Z,39.01
2018-05-06T19:35:02.273Z,39.73
2018-05-06T19:37:29.498Z,39.28
2018-05-06T19:39:56.339Z,39.90
2018-05-06T19:42:23.182Z,40.02
2018-05-06T19:44:50.065Z,40.72
2018-05-06T19:47:17.766Z,40.93
2018-05-06T19:49:44.701Z,41.09
2018-05-06T19:52:11.561Z,41.23
2018-05-06T19:54:38.448Z,42.39
2018-05-06T19:57:05.547Z,42.99
2018-05-06T19:59:32.448Z,43.65
2018-05-06T20:01:59.292Z,43.93
2018-05-06T20:04:26.139Z,44.89
2018-05-06T20:06:53.043Z,46.55
2018-05-06T20:09:20.637Z,47.01
2018-05-06T20:11:47.479Z,46.45
2018-05-06T20:14:14.420Z,46.77
2018-05-06T20:16:41.332Z,48.21
2018-05-06T20:19:08.209Z,48.22
2018-05-06T20:21:35.124Z,47.43
2018-05-06T20:24:01.983Z,48.80
2018-05-06T20:26:28.891Z,49.00
2018-05-06T20:28:56.505Z,48.15
2018-05-06T20:31:23.568Z,47.71
2018-05-06T20:33:50.585Z,47.95
2018-05-06T20:36:17.432Z,48.92
2018-05-06T20:38:44.375Z,48.88
2018-05-06T20:41:11.233Z,48.97
2018-05-06T20:43:38.121Z,49.28
2018-05-06T20:46:05.719Z,49.57
2018-05-06T20:48:32.645Z,48.80
2018-05-06T20:50:59.505Z,48.28
2018-05-06T20:53:26.351Z,48.47
2018-05-06T20:55:53.232Z,48.67
2018-05-06T20:58:20.432Z,48.81
2018-05-06T21:00:47.376Z,48.57
2018-05-06T21:03:14.216Z,48.50
2018-05-06T21:05:41.178Z,48.75
2018-05-06T21:08:08.033Z,48.78
2018-05-06T21:10:35.372Z,49.33
2018-05-06T21:13:02.250Z,49.43
2018-05-06T21:15:29.142Z,49.34
2018-05-06T21:17:56.731Z,49.33
2018-05-06T21:20:23.575Z,49.86
2018-05-06T21:22:50.474Z,49.65
2018-05-06T21:25:17.358Z,50.21
2018-05-06T21:27:44.294Z,50.11
2018-05-06T21:30:11.147Z,50.13
2018-05-06T21:32:37.995Z,50.17
2018-05-06T21:35:04.881Z,50.35
2018-05-06T21:37:31.787Z,51.21
2018-05-06T21:39:58.716Z,51.62
2018-05-06T21:42:26.631Z,51.84
2018-05-06T21:44:53.630Z,52.25
2018-05-06T21:47:20.437Z,52.22
2018-05-06T21:49:47.617Z,52.48
2018-05-06T21:52:14.455Z,52.62
2018-05-06T21:54:42.048Z,52.79
2018-05-06T21:57:08.943Z,52.84
2018-05-06T21:59:35.804Z,53.10
2018-05-06T22:02:03.492Z,53.17
2018-05-06T22:04:31.124Z,52.98
2018-05-06T22:06:57.955Z,52.76
2018-05-06T22:09:24.804Z,52.83
2018-05-06T22:11:51.688Z,53.10
2018-05-06T22:14:18.552Z,53.18
2018-05-06T22:16:45.441Z,53.17
2018-05-06T22:19:12.301Z,53.45
2018-05-06T22:21:39.184Z,53.75
2018-05-06T22:24:06.064Z,54.00
2018-05-06T22:26:32.993Z,53.84
2018-05-06T22:28:59.873Z,53.65
2018-05-06T22:31:26.720Z,53.96
2018-05-06T22:33:53.610Z,54.20
2018-05-06T22:36:20.470Z,54.25
2018-05-06T22:38:47.368Z,54.34
2018-05-06T22:41:14.955Z,55.10
2018-05-06T22:43:41.862Z,54.77
2018-05-06T22:46:08.775Z,54.81
2018-05-06T22:48:35.664Z,54.39
2018-05-06T22:51:03.269Z,54.56
2018-05-06T22:53:30.198Z,54.92
2018-05-06T22:55:57.065Z,54.73
2018-05-06T22:58:24.904Z,54.88
2018-05-06T23:00:51.843Z,54.61
2018-05-06T23:03:19.423Z,55.43
2018-05-06T23:05:46.396Z,55.97
2018-05-06T23:08:13.248Z,56.26
2018-05-06T23:10:40.144Z,57.49
2018-05-06T23:13:07.068Z,57.24
2018-05-06T23:15:33.941Z,56.68
2018-05-06T23:18:00.784Z,57.02
2018-05-06T23:20:27.819Z,57.09
2018-05-06T23:22:55.413Z,57.11
2018-05-06T23:25:22.341Z,57.32
2018-05-06T23:27:49.184Z,58.20
2018-05-06T23:30:16.387Z,57.82
2018-05-06T23:32:43.238Z,57.74
2018-05-06T23:35:10.080Z,57.73
2018-05-06T23:37:36.985Z,57.74
2018-05-06T23:40:04.634Z,58.19
2018-05-06T23:42:31.721Z,58.62
2018-05-06T23:44:58.613Z,58.32
2018-05-06T23:47:26.244Z,58.30
2018-05-06T23:49:57.711Z,58.04
2018-05-06T23:52:24.609Z,59.04
2018-05-06T23:54:51.527Z,59.16
2018-05-06T23:57:19.221Z,58.73
2018-05-06T23:59:46.084Z,58.63
